Avery Island, Louisiana
Current Conditions -  °F | °C
As of 4:53 PM on Tuesday 21 Oct 2014 (Local Time) from KARA Reporting Station
Clear Clear  
Wind Chill: 82°   Ceiling: Unl
Heat Index: 82°   Visibility: 10mi
Dew Point: 57°   Wind: 8mph
Humidity: 42%   Direction: 30°NNE
Pressure: 29.98"   Gusts: NA
Location:  29.91°N, 91.91°W
Report Text: KARA 212153Z 03007KT 10SM CLR 28/14 A2998 RMK AO2 SLP152 T02780139
Loading
Personal Weather Stations






























Interactive Weather Map
Tropical Storm Tracking
New forecast layout! Learn more

10-Day Weather Forecast

Advertisements
Track Severe Weather on mobile